Terminal Aerodrome Forecast
Issued by NWS

Home | Current Version | Previous Version | Text Only | Print | Product List | Glossary On
Versions: 1 2 3 4 5 6 7 8 9 10 11 12 13 14 15 16 17 18 19 20 21 22 23 24 25 26 27 28 29 30 31
000
FTUS44 KHGX 301125
TAFIAH
TAF
KIAH 301125Z 3012/0118 18010KT 6SM BR VCTS BKN015CB
      TEMPO 3012/3015 VRB20G30KT 1SM +TSRA BR BKN009CB
     FM301700 22007KT P6SM VCSH BKN025
     FM301900 30004KT P6SM SCT035
     FM302100 VRB02KT P6SM FEW050
     FM010900 03006KT P6SM BKN015
     FM011500 09006KT P6SM BKN025=

USA.gov is the U.S. government's official web portal to all federal, state and local government web resources and services.